Denver, CO

8:15 PM MDT on August 30, 2014 (GMT -0600)
Jeffco | Change Station
CLOSE
Current Station
Airport
Location: Broomfield,
Elevation: 5656 ft
Nearby Weather Stations

Elev 5656 ft 39.90 °N, 105.10 °W | Updated 27 minutes ago

Mostly Cloudy
Mostly Cloudy
72 °F
Feels Like 72 °F
N
6
Wind Variable Wind from WSW

Today
High -- | Low -- °F
--% Chance of Precip.
Yesterday
High -- | Low -- °F
Precip. -- in
6:26 AM 7:34 PM
Waxing Crescent, 26% visible
Pressure 30.01 in
Visibility 40.0 miles
Clouds Mostly Cloudy 6000 ft
Mostly Cloudy 11000 ft
Dew Point 48 °F
Humidity 43%
Rainfall 0.00 in
Snow Depth Not available.
UV 0 out of 12
Pollen 10.50 out of 12
Ozone Good
PM2.5 Moderate
Flu Activity Not available.
METAR KBJC 310148Z 25005KT 40SM BKN060 BKN110 22/09 A3001 RMK OCNL LTGCC DSNT NW

More Conditions Fewer Conditions

Pressure 30.01 in
Visibility 40.0 miles
Clouds Mostly Cloudy 6000 ft
Mostly Cloudy 11000 ft
Dew Point 48 °F
Humidity 43%
Rainfall 0.00 in
Snow Depth Not available.
UV 0 out of 12
Pollen 10.50 out of 12
Ozone Good
PM2.5 Moderate
Flu Activity Not available.
METAR KBJC 310148Z 25005KT 40SM BKN060 BKN110 22/09 A3001 RMK OCNL LTGCC DSNT NW

More Conditions Fewer Conditions

Nowcast | as of 7:01 PM MDT on August 30, 2014

Isolated thunderstorms will continue moving over the Front Range foothills and adjacent plains through 8pm and then begin diminishing. Brief rainfall...small hail and gusty winds up to 35 mph will be the main threats from the passing storms. Rainfall amounts will be less than one-tenth of an inch.

×

10-Day Weather Forecast

Almanac

Astronomy

Aug. 30, 2014 Rise Set
Actual Time 6:26 AM MDT 7:34 PM MDT
Civil Twilight 5:58 AM MDT 8:01 PM MDT
Nautical Twilight 5:25 AM MDT 8:34 PM MDT
Astronomical Twilight 4:50 AM MDT 9:09 PM MDT
Moon 11:15 AM MDT (8/30) 10:10 PM MDT (8/30)
Length of Visible Light 14h 03m
Length of Day
13h 08m
Tomorrow will be 2m 30s shorter.
Waxing Crescent, 26% of the Moon is Illuminated
Today
Waxing Crescent
Sep 2
First Quarter
Sep 8
Full
Sep 15
Last Quarter
Sep 24
New

Today's Extremes

State Highs State Lows

Community

WunderPhotos

Upload Photos

1,748,736 photos uploaded!

Nearby

Air Quality

  Air Quality AQ Index Pollutant
Yesterday Good
OZONE
Yesterday Good
PM10
Current Moderate
PM2.5
Current Good
OZONE
Saturday Good
OZONE
Saturday Good
PM2.5
Sunday Good
OZONE
Sunday Good
PM2.5

Snow Depth

Station Depth Elevation
Echo Lake 0 in 10600 ft
Niwot 0 in 9910 ft
University Camp 0 in 10300 ft
Berthoud Summit 0 in 11300 ft
Jackwhacker Gulch 0 in 10960 ft

Earthquake Activity

City Distance Mag. Time & Date
No recent earthquake activity has been reported nearby.
Minimum magnitude displayed is 2.5.

Coastal Water Temperatures

Place Temperature
No Stations Reporting

Nearby Weather Stations